»·PEaware :: N51204 KAJO-KVCV

N51204 :: KAJO-KVCV

FLIGHT INFORMATION

Flight Status: Arrived
Operator: Privately registered:
United States
More flights under this callsign
Pilot: Lukasz P. (2802)
Aircraft: CESSNA 172 SKYHAWK
(C172)
More flights by this aircraft type
Origin: KAJO Corona Mun
United States
Destination: KVCV Socal Logistics
United States
More flights between these airports :: More routes between these airports
Route: +PDZ V442 APLES
File this flight plan on PilotEdge
Remarks: Intent to fly ODP, I-11 rating attempt
Altitude:
(Current/Filed)
9,000ft
Speed:
(Current/Filed)
115kts
Departed: 27-Nov-20 09:45 AM
Arrived: 27-Nov-20 11:01 AM
Distance/Time
Traveled:
43nm/1:15
Distance/Time
To Go:
Arrived

Flight Plot

Page will automatically refresh every two minutes.


Map Options




Map Legend


Flown Route
Filed Route
Departure Airport
Arrival Airport
Navaid (VOR, NDB)
Fix

Horizontal Profiles

Position Reports

Time Latitude Longitude Heading Altitude Ground
Speed
27-Nov-20 09:32 33.896566 -117.598706 93 534ft 0kts
27-Nov-20 09:33 33.896566 -117.598706 93 534ft 0kts
27-Nov-20 09:34 33.896566 -117.598707 93 534ft 0kts
27-Nov-20 09:35 33.896566 -117.598707 93 534ft 0kts
27-Nov-20 09:36 33.896566 -117.598707 93 534ft 0kts
27-Nov-20 09:37 33.896566 -117.598707 93 534ft 0kts
27-Nov-20 09:38 33.896566 -117.598707 93 534ft 0kts
27-Nov-20 09:39 33.896566 -117.598707 93 534ft 0kts
27-Nov-20 09:40 33.896566 -117.598707 93 534ft 0kts
27-Nov-20 09:41 33.896567 -117.598707 93 534ft 0kts
27-Nov-20 09:42 33.897322 -117.598140 84 535ft 11kts
27-Nov-20 09:43 33.897322 -117.597436 22 536ft 1kts
27-Nov-20 09:44 33.897576 -117.606649 268 622ft 77kts
27-Nov-20 09:45 33.902281 -117.630273 333 1439ft 78kts
27-Nov-20 09:46 33.914381 -117.617179 93 2226ft 77kts
27-Nov-20 09:47 33.914124 -117.591224 85 2952ft 79kts
27-Nov-20 09:48 33.915467 -117.564344 89 3641ft 82kts
27-Nov-20 09:49 33.916305 -117.536781 78 4355ft 83kts
27-Nov-20 09:50 33.930907 -117.515662 42 5051ft 83kts
27-Nov-20 09:51 33.949441 -117.505356 303 5683ft 87kts
27-Nov-20 09:52 33.932440 -117.520787 196 5980ft 98kts
27-Nov-20 09:53 33.916908 -117.542175 309 5998ft 100kts
27-Nov-20 09:54 33.939625 -117.531683 43 6070ft 98kts
27-Nov-20 09:55 33.951776 -117.506029 138 6029ft 107kts
27-Nov-20 09:56 33.928149 -117.521034 218 6012ft 103kts
27-Nov-20 09:57 33.919059 -117.546070 336 5908ft 110kts
27-Nov-20 09:58 33.941920 -117.529826 42 6584ft 93kts
27-Nov-20 09:59 33.945414 -117.508046 171 7046ft 104kts
27-Nov-20 10:00 33.923286 -117.526587 223 7668ft 88kts
27-Nov-20 10:01 33.925151 -117.544344 16 8223ft 83kts
27-Nov-20 10:02 33.942786 -117.526683 42 8748ft 80kts
27-Nov-20 10:03 33.959502 -117.509346 28 9109ft 80kts
27-Nov-20 10:04 33.983062 -117.496734 23 9118ft 99kts
27-Nov-20 10:05 34.009269 -117.482480 25 9105ft 113kts
27-Nov-20 10:06 34.038241 -117.466252 28 8986ft 114kts
27-Nov-20 10:07 34.066215 -117.449136 27 8997ft 112kts
27-Nov-20 10:08 34.094158 -117.431730 27 8999ft 113kts
27-Nov-20 10:09 34.122279 -117.414421 27 8999ft 113kts
27-Nov-20 10:10 34.150371 -117.397015 27 8999ft 113kts
27-Nov-20 10:11 34.178578 -117.379572 27 8999ft 113kts
27-Nov-20 10:12 34.206619 -117.362204 27 9000ft 113kts
27-Nov-20 10:13 34.234827 -117.344727 27 9000ft 113kts
27-Nov-20 10:14 34.262893 -117.327323 27 9000ft 113kts
27-Nov-20 10:15 34.291051 -117.309848 27 8999ft 113kts
27-Nov-20 10:16 34.319134 -117.292407 27 8999ft 113kts
27-Nov-20 10:17 34.347263 -117.274924 27 9000ft 113kts
27-Nov-20 10:18 34.375377 -117.257436 27 8999ft 113kts
27-Nov-20 10:19 34.403519 -117.239920 27 8999ft 113kts
27-Nov-20 10:20 34.431579 -117.222440 27 9000ft 113kts
27-Nov-20 10:21 34.459770 -117.204865 27 9000ft 113kts
27-Nov-20 10:22 34.487821 -117.187360 27 9000ft 113kts
27-Nov-20 10:23 34.515924 -117.169565 27 9000ft 113kts
27-Nov-20 10:24 34.543890 -117.151792 27 8999ft 113kts
27-Nov-20 10:25 34.574235 -117.137710 16 8747ft 121kts
27-Nov-20 10:26 34.608144 -117.131029 2 8252ft 125kts
27-Nov-20 10:27 34.642722 -117.136539 341 7668ft 129kts
27-Nov-20 10:28 34.675096 -117.155757 329 7008ft 126kts
27-Nov-20 10:29 34.704265 -117.177029 328 6636ft 116kts
27-Nov-20 10:30 34.730196 -117.197390 320 6603ft 108kts
27-Nov-20 10:31 34.751343 -117.222729 311 6600ft 106kts
27-Nov-20 10:32 34.769031 -117.251630 298 6600ft 106kts
27-Nov-20 10:33 34.780473 -117.284774 286 6600ft 106kts
27-Nov-20 10:34 34.789790 -117.320622 287 6082ft 114kts
27-Nov-20 10:35 34.798378 -117.356707 277 5330ft 105kts
27-Nov-20 10:36 34.788168 -117.379641 184 5020ft 95kts
27-Nov-20 10:37 34.760655 -117.382961 180 4486ft 97kts
27-Nov-20 10:38 34.736949 -117.383542 183 4304ft 70kts
27-Nov-20 10:39 34.714295 -117.384720 181 4305ft 86kts
27-Nov-20 10:40 34.692424 -117.385594 182 4279ft 71kts
27-Nov-20 10:41 34.669130 -117.386700 181 3837ft 91kts
27-Nov-20 10:42 34.643608 -117.387777 179 3334ft 92kts
27-Nov-20 10:43 34.615470 -117.388089 183 3391ft 119kts
27-Nov-20 10:44 34.581975 -117.391304 185 3648ft 116kts
27-Nov-20 10:45 34.579020 -117.419774 305 4220ft 105kts
27-Nov-20 10:46 34.597738 -117.446279 312 4826ft 102kts
27-Nov-20 10:47 34.609464 -117.477480 283 5376ft 103kts
27-Nov-20 10:48 34.615546 -117.511605 281 5892ft 104kts
27-Nov-20 10:49 34.621634 -117.546986 281 5994ft 108kts
27-Nov-20 10:50 34.610471 -117.564862 149 5883ft 101kts
27-Nov-20 10:51 34.586491 -117.546119 151 5583ft 103kts
27-Nov-20 10:52 34.561928 -117.527769 145 5272ft 105kts
27-Nov-20 10:53 34.536121 -117.509539 151 4870ft 108kts
27-Nov-20 10:54 34.510133 -117.491288 146 4469ft 108kts
27-Nov-20 10:55 34.514845 -117.464121 36 4363ft 103kts
27-Nov-20 10:56 34.536804 -117.442274 43 4218ft 88kts
27-Nov-20 10:57 34.552756 -117.423027 43 4046ft 78kts
27-Nov-20 10:58 34.568002 -117.405163 42 3615ft 77kts
27-Nov-20 10:59 34.582312 -117.388187 44 2951ft 68kts
27-Nov-20 11:00 34.590146 -117.378205 128 2872ft 13kts
27-Nov-20 11:01 34.589806 -117.377779 136 2869ft 0kts
27-Nov-20 11:03 34.590495 -117.375620 54 2866ft 16kts
27-Nov-20 11:04 34.589044 -117.374588 224 2866ft 0kts
27-Nov-20 11:05 34.588913 -117.374694 212 2867ft 0kts
27-Nov-20 11:06 34.588913 -117.374694 212 2867ft 0kts
27-Nov-20 11:07 34.588913 -117.374694 212 2867ft 0kts
27-Nov-20 11:08 34.588913 -117.374694 212 2867ft 0kts
27-Nov-20 11:09 34.588913 -117.374694 212 2867ft 0kts
27-Nov-20 11:10 34.588913 -117.374694 212 2867ft 0kts
27-Nov-20 11:11 34.588913 -117.374694 212 2867ft 0kts
27-Nov-20 11:12 34.588913 -117.374694 212 2867ft 0kts
27-Nov-20 11:13 34.588913 -117.374694 212 2867ft 0kts
27-Nov-20 11:14 34.588913 -117.374694 212 2867ft 0kts
27-Nov-20 11:15 34.588913 -117.374694 212 2867ft 0kts

Navigation Log

Ident Type
Flight plan parsing failed, navigation log unavailable